Time;durP1;ratioP1;P1;durP2;ratioP2;P2;SDS_P1;SDS_P2;PMS_P1;PMS_P2;Temp;Humidity;BMP_temperature;BMP_pressure;BME280_temperature;BME280_humidity;BME280_pressure;Samples;Min_cycle;Max_cycle;Signal;HPM_P1;HPM_P2
2022/04/29 00:00:48;;;;;;;;;;;;;;;;;;8397099;28;20068;-76
2022/04/29 00:04:52;;;;;;;17.52;9.88;;;;;;;;;;8396733;28;19927;-78
2022/04/29 00:08:55;;;;;;;16.20;10.30;;;;;;;;;;8396723;28;20044;-77
2022/04/29 00:12:58;;;;;;;17.80;10.07;;;;;;;;;;8396985;28;20048;-78
2022/04/29 00:17:00;;;;;;;18.15;10.57;;;;;;;;;;8396775;28;20048;-77
2022/04/29 00:21:06;;;;;;;14.60;9.90;;;;;;;;;;8396309;28;20464;-78
2022/04/29 00:25:09;;;;;;;15.70;9.27;;;;;;;;;;8400207;28;20047;-76
2022/04/29 00:29:12;;;;;;;17.75;9.95;;;;;;;;;;8402423;28;20492;-77
2022/04/29 00:33:14;;;;;;;17.60;10.27;;;;;;;;;;8403029;28;20385;-76
2022/04/29 00:37:19;;;;;;;17.90;10.73;;;;;;;;;;8402573;28;20127;-76
2022/04/29 00:41:23;;;;;;;18.42;10.35;;;;;;;;;;8402707;28;20529;-77
2022/04/29 00:45:26;;;;;;;18.23;9.95;;;;;;;;;;8402687;28;20040;-77
2022/04/29 00:49:29;;;;;;;17.63;9.07;;;;;;;;;;8402533;28;20458;-77
2022/04/29 00:53:33;;;;;;;17.90;9.20;;;;;;;;;;8401757;28;20048;-76
2022/04/29 00:57:42;;;;;;;16.15;9.68;;;;;;;;;;8401804;28;20055;-76
2022/04/29 01:01:46;;;;;;;14.25;8.90;;;;;;;;;;8401568;28;20048;-78
2022/04/29 01:05:49;;;;;;;17.00;9.57;;;;;;;;;;8401533;28;20053;-77
2022/04/29 01:09:54;;;;;;;15.82;8.52;;;;;;;;;;8401442;28;20060;-77
2022/04/29 01:13:56;;;;;;;13.52;8.40;;;;;;;;;;8401794;28;20126;-76
2022/04/29 01:18:02;;;;;;;15.77;8.85;;;;;;;;;;8401298;28;20040;-78
2022/04/29 01:22:07;;;;;;;18.98;9.13;;;;;;;;;;8401534;28;20056;-78
2022/04/29 01:26:14;;;;;;;17.35;9.40;;;;;;;;;;8400447;28;20052;-76
2022/04/29 01:30:17;;;;;;;27.15;14.77;;;;;;;;;;8401356;28;20480;-77
2022/04/29 01:34:20;;;;;;;25.55;12.57;;;;;;;;;;8400531;28;20369;-76
2022/04/29 01:38:24;;;;;;;22.27;11.98;;;;;;;;;;8400714;28;20041;-78
2022/04/29 01:42:27;;;;;;;22.08;12.40;;;;;;;;;;8400959;28;20526;-77
2022/04/29 01:46:29;;;;;;;20.17;12.98;;;;;;;;;;8400296;28;20098;-76
2022/04/29 01:50:32;;;;;;;19.90;11.27;;;;;;;;;;8400771;28;20114;-76
2022/04/29 01:54:36;;;;;;;24.35;13.23;;;;;;;;;;8400116;28;20105;-77
2022/04/29 01:58:38;;;;;;;20.63;11.85;;;;;;;;;;8400541;28;20052;-77
2022/04/29 02:02:41;;;;;;;20.95;11.82;;;;;;;;;;8400234;28;20051;-78
2022/04/29 02:06:43;;;;;;;18.38;9.90;;;;;;;;;;8399859;28;20070;-79
2022/04/29 02:10:47;;;;;;;16.88;10.13;;;;;;;;;;8387453;28;20075;-75
2022/04/29 02:14:50;;;;;;;20.67;11.43;;;;;;;;;;8369307;28;20432;-77
2022/04/29 02:18:52;;;;;;;;;;;;;;;;;;8368158;28;20051;-77
2022/04/29 02:22:55;;;;;;;20.52;11.20;;;;;;;;;;8365435;28;20280;-78
2022/04/29 02:27:00;;;;;;;19.67;11.05;;;;;;;;;;8366319;28;20072;-79
2022/04/29 02:31:03;;;;;;;199.52;85.53;;;;;;;;;;8366021;28;20090;-76
2022/04/29 02:35:06;;;;;;;60.92;31.63;;;;;;;;;;8368356;28;20493;-78
2022/04/29 02:39:09;;;;;;;35.10;18.63;;;;;;;;;;8367426;28;20435;-77
2022/04/29 02:43:13;;;;;;;14.50;8.48;;;;;;;;;;8377716;28;20045;-77
2022/04/29 02:47:16;;;;;;;15.90;8.85;;;;;;;;;;8387223;28;20127;-76
2022/04/29 02:51:18;;;;;;;15.35;9.38;;;;;;;;;;8388558;28;20044;-77
2022/04/29 02:55:21;;;;;;;17.13;9.80;;;;;;;;;;8390359;28;20041;-77
2022/04/29 02:59:25;;;;;;;19.17;11.48;;;;;;;;;;8393908;28;20131;-77
2022/04/29 03:03:28;;;;;;;18.45;10.50;;;;;;;;;;8393284;28;20044;-76
2022/04/29 03:07:33;;;;;;;16.48;10.05;;;;;;;;;;8379751;28;20045;-76
2022/04/29 03:11:36;;;;;;;17.83;10.82;;;;;;;;;;8387121;28;20049;-76
2022/04/29 03:15:42;;;;;;;22.77;12.30;;;;;;;;;;8378905;28;20068;-78
2022/04/29 03:19:44;;;;;;;18.45;11.95;;;;;;;;;;8372833;28;20056;-76
2022/04/29 03:23:47;;;;;;;;;;;;;;;;;;8370638;28;20533;-78
2022/04/29 03:27:49;;;;;;;17.58;10.70;;;;;;;;;;8386404;28;20019;-78
2022/04/29 03:31:53;;;;;;;21.58;12.23;;;;;;;;;;8374361;28;20064;-79
2022/04/29 03:35:56;;;;;;;32.95;17.30;;;;;;;;;;8363905;28;20056;-77
2022/04/29 03:39:58;;;;;;;23.23;14.65;;;;;;;;;;8364437;28;20069;-76
2022/04/29 03:44:01;;;;;;;44.70;28.02;;;;;;;;;;8364259;28;20485;-78
2022/04/29 03:48:06;;;;;;;31.20;17.60;;;;;;;;;;8363861;28;20128;-77
2022/04/29 03:52:08;;;;;;;18.83;9.93;;;;;;;;;;8364277;28;20064;-77
2022/04/29 03:56:11;;;;;;;14.57;9.05;;;;;;;;;;8364196;28;20044;-77
2022/04/29 04:00:16;;;;;;;16.27;11.00;;;;;;;;;;8367959;28;20041;-76
2022/04/29 04:04:20;;;;;;;27.08;17.85;;;;;;;;;;8370448;28;20071;-76
2022/04/29 04:08:22;;;;;;;20.38;12.32;;;;;;;;;;8370812;28;20045;-77
2022/04/29 04:12:25;;;;;;;24.38;13.77;;;;;;;;;;8370528;28;20045;-77
2022/04/29 04:16:28;;;;;;;21.33;10.88;;;;;;;;;;8370615;28;20041;-76
2022/04/29 04:20:31;;;;;;;;;;;;;;;;;;8370782;28;20408;-77
2022/04/29 04:24:34;;;;;;;19.00;12.30;;;;;;;;;;8370097;28;20414;-77
2022/04/29 04:28:37;;;;;;;23.20;13.90;;;;;;;;;;8369324;28;20098;-78
2022/04/29 04:32:40;;;;;;;21.05;12.73;;;;;;;;;;8369606;28;20056;-77
2022/04/29 04:36:44;;;;;;;22.15;12.90;;;;;;;;;;8369941;28;20454;-76
2022/04/29 04:40:47;;;;;;;23.15;14.55;;;;;;;;;;8369330;28;20041;-77
2022/04/29 04:44:50;;;;;;;23.30;14.43;;;;;;;;;;8369358;28;20049;-76
2022/04/29 04:48:53;;;;;;;31.77;17.73;;;;;;;;;;8369109;28;20041;-76
2022/04/29 04:52:57;;;;;;;31.55;19.42;;;;;;;;;;8368930;28;20045;-77
2022/04/29 04:57:00;;;;;;;42.97;26.67;;;;;;;;;;8368634;28;20041;-76
2022/04/29 05:01:03;;;;;;;42.75;28.05;;;;;;;;;;8369284;28;20464;-76
2022/04/29 05:05:07;;;;;;;27.15;19.10;;;;;;;;;;8384916;28;20074;-78
2022/04/29 05:09:11;;;;;;;24.58;16.15;;;;;;;;;;8401413;28;20476;-76
2022/04/29 05:13:14;;;;;;;33.47;17.40;;;;;;;;;;8401309;28;20055;-77
2022/04/29 05:17:16;;;;;;;27.45;15.48;;;;;;;;;;8401139;28;20106;-78
2022/04/29 05:21:19;;;;;;;20.13;12.95;;;;;;;;;;8401569;28;20049;-76
2022/04/29 05:25:23;;;;;;;22.98;14.77;;;;;;;;;;8377366;28;20059;-77
2022/04/29 05:29:26;;;;;;;29.88;20.00;;;;;;;;;;8374111;28;20052;-77
2022/04/29 05:33:30;;;;;;;34.85;22.10;;;;;;;;;;8368226;28;20072;-76
2022/04/29 05:37:34;;;;;;;24.65;16.00;;;;;;;;;;8367466;28;20049;-76
2022/04/29 05:45:58;;;;;;;22.10;14.70;;;;;;;;;;8367369;28;20045;-77
2022/04/29 05:50:01;;;;;;;29.25;17.00;;;;;;;;;;8374554;28;20485;-79
2022/04/29 05:54:04;;;;;;;40.75;22.88;;;;;;;;;;8381319;28;20052;-77
2022/04/29 05:58:08;;;;;;;44.55;22.83;;;;;;;;;;8390434;28;20162;-76
2022/04/29 06:02:11;;;;;;;36.30;21.27;;;;;;;;;;8399201;28;20163;-76
2022/04/29 06:06:14;;;;;;;38.50;25.67;;;;;;;;;;8377307;28;20455;-75
2022/04/29 06:10:16;;;;;;;28.15;20.27;;;;;;;;;;8366585;28;20056;-76
2022/04/29 06:14:21;;;;;;;20.70;14.35;;;;;;;;;;8366939;28;20045;-76
2022/04/29 06:18:24;;;;;;;23.75;15.43;;;;;;;;;;8366400;28;20116;-77
2022/04/29 06:22:29;;;;;;;19.52;16.40;;;;;;;;;;8365797;28;20045;-76
2022/04/29 06:26:32;;;;;;;13.90;10.23;;;;;;;;;;8366151;28;20459;-76
2022/04/29 06:30:36;;;;;;;20.42;13.98;;;;;;;;;;8379960;28;20045;-78
2022/04/29 06:34:39;;;;;;;19.20;12.35;;;;;;;;;;8365877;28;20053;-76
2022/04/29 06:38:42;;;;;;;15.05;11.10;;;;;;;;;;8380081;28;20499;-78
2022/04/29 06:42:46;;;;;;;32.72;21.25;;;;;;;;;;8397032;28;20044;-81
2022/04/29 06:46:51;;;;;;;20.08;12.52;;;;;;;;;;8397450;28;20423;-79
2022/04/29 06:50:54;;;;;;;18.80;11.98;;;;;;;;;;8390025;28;20043;-78
2022/04/29 06:54:57;;;;;;;14.80;11.63;;;;;;;;;;8396444;28;20045;-77
2022/04/29 06:59:00;;;;;;;14.02;7.47;;;;;;;;;;8396876;28;20052;-79
2022/04/29 07:03:05;;;;;;;12.65;8.18;;;;;;;;;;8397517;28;20048;-79
2022/04/29 07:07:11;;;;;;;15.38;9.90;;;;;;;;;;8397646;28;20262;-78
2022/04/29 07:11:14;;;;;;;9.45;6.75;;;;;;;;;;8397352;28;20050;-83
2022/04/29 07:15:18;;;;;;;7.57;5.10;;;;;;;;;;8381208;28;20477;-78
2022/04/29 07:19:22;;;;;;;8.88;5.93;;;;;;;;;;8384012;28;20040;-77
2022/04/29 07:23:25;;;;;;;7.68;5.75;;;;;;;;;;8376592;28;20098;-77
2022/04/29 07:27:29;;;;;;;8.48;5.38;;;;;;;;;;8360957;28;20691;-77
2022/04/29 07:31:32;;;;;;;8.93;7.07;;;;;;;;;;8362362;28;20045;-79
2022/04/29 07:44:17;;;;;;;7.10;5.55;;;;;;;;;;8361813;28;20140;-80
2022/04/29 07:48:22;;;;;;;11.98;7.00;;;;;;;;;;8362182;28;20113;-80
2022/04/29 07:52:26;;;;;;;10.02;6.05;;;;;;;;;;8364014;28;20504;-79
2022/04/29 07:56:29;;;;;;;11.68;7.38;;;;;;;;;;8363616;28;20049;-82
2022/04/29 08:00:32;;;;;;;11.73;6.82;;;;;;;;;;8364086;28;20132;-82
2022/04/29 08:04:36;;;;;;;10.15;7.18;;;;;;;;;;8363475;28;20135;-80
2022/04/29 08:08:40;;;;;;;9.73;6.82;;;;;;;;;;8363499;28;20106;-78
2022/04/29 08:12:43;;;;;;;9.20;6.40;;;;;;;;;;8363531;28;20117;-76
2022/04/29 08:16:46;;;;;;;9.35;6.15;;;;;;;;;;8363256;28;20037;-80
2022/04/29 08:20:49;;;;;;;9.82;6.07;;;;;;;;;;8363275;28;20045;-81
2022/04/29 08:24:54;;;;;;;13.35;7.05;;;;;;;;;;8363214;28;20119;-77
2022/04/29 08:28:58;;;;;;;9.82;6.55;;;;;;;;;;8362940;28;20060;-77
2022/04/29 08:33:02;;;;;;;11.02;8.45;;;;;;;;;;8363091;28;20099;-78
2022/04/29 08:37:05;;;;;;;14.02;8.57;;;;;;;;;;8363621;28;20548;-82
2022/04/29 08:41:10;;;;;;;9.77;6.68;;;;;;;;;;8363194;28;20048;-77
2022/04/29 08:45:15;;;;;;;10.48;7.10;;;;;;;;;;8365439;28;20053;-80
2022/04/29 08:49:18;;;;;;;12.07;9.35;;;;;;;;;;8369197;28;20041;-80
2022/04/29 08:53:21;;;;;;;9.93;5.78;;;;;;;;;;8382375;28;20107;-78
2022/04/29 09:01:45;;;;;;;11.70;6.60;;;;;;;;;;8397949;28;20096;-77
2022/04/29 09:05:49;;;;;;;11.70;6.90;;;;;;;;;;8392456;28;20088;-77
2022/04/29 09:10:05;;;;;;;10.43;6.45;;;;;;;;;;8381027;28;20061;-77
2022/04/29 09:14:22;;;;;;;15.00;6.80;;;;;;;;;;8375759;28;20124;-80
2022/04/29 09:18:34;;;;;;;11.93;7.35;;;;;;;;;;8377265;28;20045;-80
2022/04/29 09:22:39;;;;;;;20.30;10.75;;;;;;;;;;8378189;28;20056;-83
2022/04/29 09:26:42;;;;;;;15.18;7.45;;;;;;;;;;8375752;28;20064;-80
2022/04/29 09:30:46;;;;;;;6.30;4.28;;;;;;;;;;8368712;28;20466;-77
2022/04/29 09:34:53;;;;;;;7.03;3.83;;;;;;;;;;8367886;28;20451;-78
2022/04/29 09:43:18;;;;;;;10.45;3.67;;;;;;;;;;8341975;28;20049;-77
2022/04/29 09:47:25;;;;;;;5.35;3.65;;;;;;;;;;8386554;28;20499;-77
2022/04/29 09:51:46;;;;;;;7.57;4.25;;;;;;;;;;8400210;28;20072;-78
2022/04/29 09:56:07;;;;;;;6.35;3.58;;;;;;;;;;8387765;28;20076;-77
2022/04/29 10:00:12;;;;;;;7.43;3.93;;;;;;;;;;8377704;28;20090;-80
2022/04/29 10:04:18;;;;;;;7.32;4.20;;;;;;;;;;8366335;28;20425;-77
2022/04/29 10:08:22;;;;;;;7.13;3.90;;;;;;;;;;8366255;28;20053;-76
2022/04/29 10:12:29;;;;;;;6.22;3.83;;;;;;;;;;8365906;28;20045;-77
2022/04/29 10:16:36;;;;;;;7.38;4.97;;;;;;;;;;8365804;28;20123;-77
2022/04/29 10:25:10;;;;;;;8.60;4.60;;;;;;;;;;8399005;28;20506;-77
2022/04/29 10:29:15;;;;;;;7.32;4.75;;;;;;;;;;8398103;28;20098;-77
2022/04/29 10:33:24;;;;;;;8.00;5.07;;;;;;;;;;8398280;28;20101;-77
2022/04/29 10:37:40;;;;;;;7.70;4.97;;;;;;;;;;8398732;28;20472;-76
2022/04/29 10:42:01;;;;;;;8.13;4.47;;;;;;;;;;8396250;28;20044;-78
2022/04/29 10:46:21;;;;;;;7.65;4.10;;;;;;;;;;8365369;28;20067;-76
2022/04/29 10:50:39;;;;;;;6.88;4.78;;;;;;;;;;8381079;28;20625;-76
2022/04/29 10:54:47;;;;;;;7.28;4.50;;;;;;;;;;8397573;28;20076;-76
2022/04/29 10:58:51;;;;;;;9.10;4.63;;;;;;;;;;8397474;28;20403;-76
2022/04/29 11:02:54;;;;;;;8.80;5.03;;;;;;;;;;8397368;28;20059;-75
2022/04/29 11:07:00;;;;;;;8.05;5.10;;;;;;;;;;8397571;28;20048;-75
2022/04/29 11:11:06;;;;;;;12.52;5.35;;;;;;;;;;8397263;28;20412;-75
2022/04/29 11:15:15;;;;;;;7.85;5.07;;;;;;;;;;8397850;28;20048;-76
2022/04/29 11:19:21;;;;;;;7.82;4.68;;;;;;;;;;8395163;28;20048;-77
2022/04/29 11:27:51;;;;;;;9.23;4.90;;;;;;;;;;8373813;28;20052;-76
2022/04/29 11:31:56;;;;;;;11.65;5.03;;;;;;;;;;8373274;28;20052;-76
2022/04/29 11:36:05;;;;;;;7.68;4.78;;;;;;;;;;8396171;28;20076;-75
2022/04/29 11:40:09;;;;;;;8.23;4.50;;;;;;;;;;8379748;28;20469;-77
2022/04/29 11:44:13;;;;;;;11.65;5.53;;;;;;;;;;8363517;28;20053;-76
2022/04/29 11:48:17;;;;;;;10.25;5.07;;;;;;;;;;8364167;28;20045;-76
2022/04/29 11:52:23;;;;;;;8.98;4.57;;;;;;;;;;8363635;28;20073;-78
2022/04/29 11:56:35;;;;;;;7.13;4.70;;;;;;;;;;8363923;28;20049;-78
2022/04/29 12:00:39;;;;;;;11.43;5.17;;;;;;;;;;8363551;28;20055;-76
2022/04/29 12:04:54;;;;;;;9.32;4.70;;;;;;;;;;8363411;28;20450;-77
2022/04/29 12:08:58;;;;;;;9.05;4.55;;;;;;;;;;8363493;28;20076;-75
2022/04/29 12:13:04;;;;;;;8.30;4.50;;;;;;;;;;8364353;28;20045;-76
2022/04/29 12:17:10;;;;;;;10.45;3.80;;;;;;;;;;8363507;28;20048;-78
2022/04/29 12:21:20;;;;;;;11.30;4.10;;;;;;;;;;8367507;28;20056;-76
2022/04/29 12:25:26;;;;;;;8.48;4.28;;;;;;;;;;8369786;28;20060;-75
2022/04/29 12:29:31;;;;;;;7.50;3.70;;;;;;;;;;8369597;28;20480;-78
2022/04/29 12:38:03;;;;;;;9.13;4.00;;;;;;;;;;8369324;28;20048;-76
2022/04/29 12:42:08;;;;;;;5.82;3.55;;;;;;;;;;8369089;28;20618;-75
2022/04/29 12:46:15;;;;;;;7.57;3.75;;;;;;;;;;8368502;28;20041;-77
2022/04/29 12:50:26;;;;;;;8.57;4.90;;;;;;;;;;8368659;28;20045;-76
2022/04/29 12:54:29;;;;;;;;;;;;;;;;;;8369165;28;20049;-76
2022/04/29 12:58:33;;;;;;;9.27;4.28;;;;;;;;;;8368353;28;19920;-78
2022/04/29 13:02:36;;;;;;;6.22;3.83;;;;;;;;;;8368720;28;20132;-75
2022/04/29 13:06:41;;;;;;;6.55;3.83;;;;;;;;;;8382348;28;20059;-78
2022/04/29 13:10:46;;;;;;;8.25;4.47;;;;;;;;;;8396732;28;20461;-76
2022/04/29 13:14:51;;;;;;;8.40;4.70;;;;;;;;;;8390648;28;20056;-76
2022/04/29 13:18:56;;;;;;;9.05;4.10;;;;;;;;;;8368591;28;20230;-76
2022/04/29 13:23:10;;;;;;;10.15;4.43;;;;;;;;;;8372751;28;20056;-76
2022/04/29 13:27:21;;;;;;;10.65;5.53;;;;;;;;;;8362727;28;20086;-75
2022/04/29 13:31:24;;;;;;;7.32;4.00;;;;;;;;;;8372821;28;20085;-78
2022/04/29 13:35:28;;;;;;;7.93;4.07;;;;;;;;;;8363138;28;20556;-77
2022/04/29 13:39:41;;;;;;;12.10;4.78;;;;;;;;;;8364483;28;20053;-77
2022/04/29 13:43:46;;;;;;;8.05;4.28;;;;;;;;;;8373991;28;20067;-76
2022/04/29 13:47:48;;;;;;;7.88;5.57;;;;;;;;;;8373445;28;20049;-79
2022/04/29 13:51:51;;;;;;;10.27;5.07;;;;;;;;;;8369190;28;20111;-76
2022/04/29 13:55:56;;;;;;;9.85;5.20;;;;;;;;;;8367939;28;20092;-76
2022/04/29 13:59:59;;;;;;;10.18;4.57;;;;;;;;;;8371876;28;20068;-76
2022/04/29 14:04:02;;;;;;;6.70;3.97;;;;;;;;;;8373181;28;20053;-76
2022/04/29 14:08:08;;;;;;;7.97;4.63;;;;;;;;;;8373405;28;20407;-78
2022/04/29 14:12:14;;;;;;;11.00;4.80;;;;;;;;;;8365387;28;20412;-76
2022/04/29 14:16:20;;;;;;;11.23;4.72;;;;;;;;;;8386017;28;20056;-78
2022/04/29 14:20:24;;;;;;;13.60;4.80;;;;;;;;;;8375009;28;20051;-80
2022/04/29 14:24:27;;;;;;;8.52;4.30;;;;;;;;;;8371848;28;20446;-76
2022/04/29 14:28:32;;;;;;;8.57;4.65;;;;;;;;;;8387742;28;20057;-77
2022/04/29 14:32:35;;;;;;;7.25;3.55;;;;;;;;;;8367167;28;20041;-76
2022/04/29 14:36:38;;;;;;;9.43;4.25;;;;;;;;;;8372219;28;20045;-75
2022/04/29 14:40:41;;;;;;;4.20;2.85;;;;;;;;;;8371913;28;20049;-76
2022/04/29 14:44:45;;;;;;;7.20;4.00;;;;;;;;;;8368367;28;20566;-76
2022/04/29 14:48:48;;;;;;;10.40;4.22;;;;;;;;;;8366035;28;20041;-76
2022/04/29 14:52:50;;;;;;;7.63;3.63;;;;;;;;;;8373534;28;20060;-76
2022/04/29 14:56:54;;;;;;;8.57;4.18;;;;;;;;;;8368710;28;20056;-75
2022/04/29 15:00:58;;;;;;;8.48;3.80;;;;;;;;;;8371301;28;20056;-75
2022/04/29 15:05:01;;;;;;;6.03;3.22;;;;;;;;;;8379367;28;20079;-77
2022/04/29 15:17:48;;;;;;;6.40;3.45;;;;;;;;;;8378319;28;20485;-75
2022/04/29 15:21:51;;;;;;;12.32;5.35;;;;;;;;;;8369601;28;20045;-77
2022/04/29 15:25:54;;;;;;;9.20;4.75;;;;;;;;;;8362617;28;20110;-76
2022/04/29 15:29:57;;;;;;;7.75;4.10;;;;;;;;;;8368297;28;20060;-76
2022/04/29 15:34:01;;;;;;;14.10;6.50;;;;;;;;;;8370830;28;20481;-75
2022/04/29 15:38:04;;;;;;;6.07;2.47;;;;;;;;;;8370472;28;20052;-76
2022/04/29 15:42:08;;;;;;;5.00;2.80;;;;;;;;;;8362388;28;20136;-76
2022/04/29 15:46:12;;;;;;;7.30;4.15;;;;;;;;;;8366030;28;20049;-76
2022/04/29 15:50:16;;;;;;;6.03;3.05;;;;;;;;;;8380198;28;20056;-76
2022/04/29 15:54:22;;;;;;;5.82;2.78;;;;;;;;;;8376902;28;20048;-76
2022/04/29 15:58:26;;;;;;;8.60;3.60;;;;;;;;;;8371977;28;20076;-76
2022/04/29 16:02:30;;;;;;;7.95;3.35;;;;;;;;;;8379934;28;20052;-77
2022/04/29 16:06:35;;;;;;;11.90;4.72;;;;;;;;;;8381072;28;20063;-76
2022/04/29 16:10:39;;;;;;;11.60;4.63;;;;;;;;;;8379586;28;20052;-76
2022/04/29 16:14:43;;;;;;;8.65;3.72;;;;;;;;;;8372574;28;20143;-76
2022/04/29 16:27:34;;;;;;;15.38;8.35;;;;;;;;;;8383770;28;20052;-76
2022/04/29 16:31:39;;;;;;;13.95;7.90;;;;;;;;;;8377594;28;20041;-76
2022/04/29 16:35:42;;;;;;;10.38;6.90;;;;;;;;;;8382748;28;20052;-75
2022/04/29 16:39:51;;;;;;;21.10;13.30;;;;;;;;;;8387286;28;20095;-75
2022/04/29 16:43:58;;;;;;;11.18;5.20;;;;;;;;;;8387467;28;20574;-76
2022/04/29 16:48:02;;;;;;;19.67;11.55;;;;;;;;;;8384595;28;20045;-76
2022/04/29 16:52:07;;;;;;;11.13;5.07;;;;;;;;;;8372850;28;20099;-76
2022/04/29 16:56:12;;;;;;;10.35;5.38;;;;;;;;;;8363478;28;20040;-76
2022/04/29 17:00:17;;;;;;;11.80;6.15;;;;;;;;;;8363723;28;20052;-77
2022/04/29 17:04:20;;;;;;;9.95;5.20;;;;;;;;;;8380066;28;20048;-76
2022/04/29 17:08:25;;;;;;;6.82;4.18;;;;;;;;;;8380626;28;20045;-76
2022/04/29 17:12:29;;;;;;;11.77;4.55;;;;;;;;;;8382198;28;20056;-77
2022/04/29 17:16:35;;;;;;;17.73;6.80;;;;;;;;;;8377929;28;20040;-76
2022/04/29 17:20:39;;;;;;;17.80;6.45;;;;;;;;;;8374493;28;20087;-77
2022/04/29 17:24:43;;;;;;;19.20;7.32;;;;;;;;;;8379605;28;20151;-80
2022/04/29 17:28:50;;;;;;;18.88;8.65;;;;;;;;;;8375931;28;20064;-76
2022/04/29 17:32:54;;;;;;;55.35;27.35;;;;;;;;;;8389975;28;20049;-77
2022/04/29 17:36:57;;;;;;;39.50;18.25;;;;;;;;;;8369288;28;20045;-77
2022/04/29 17:45:30;;;;;;;87.00;37.75;;;;;;;;;;8369018;28;20049;-75
2022/04/29 17:50:15;;;;;;;96.88;39.28;;;;;;;;;;8385580;28;20392;-76
2022/04/29 17:54:14;;;;;;;42.83;20.48;;;;;;;;;;8366916;28;20143;-77
2022/04/29 17:58:20;;;;;;;37.30;17.38;;;;;;;;;;8367424;28;20041;-75
2022/04/29 18:02:26;;;;;;;69.35;26.17;;;;;;;;;;8377462;28;20060;-77
2022/04/29 18:06:29;;;;;;;13.52;5.45;;;;;;;;;;8379840;28;20156;-76
2022/04/29 18:10:35;;;;;;;26.60;13.93;;;;;;;;;;8374677;28;20063;-76
2022/04/29 18:14:45;;;;;;;39.60;19.40;;;;;;;;;;8387327;28;20458;-77
2022/04/29 18:19:20;;;;;;;53.65;25.27;;;;;;;;;;8372682;28;20127;-76
2022/04/29 18:23:27;;;;;;;56.38;30.15;;;;;;;;;;8371573;28;20041;-75
2022/04/29 18:27:31;;;;;;;48.92;30.13;;;;;;;;;;8370607;28;20056;-75
2022/04/29 18:31:36;;;;;;;42.70;23.00;;;;;;;;;;8375183;28;20072;-77
2022/04/29 18:35:49;;;;;;;34.67;18.25;;;;;;;;;;8380201;28;20048;-76
2022/04/29 18:39:57;;;;;;;31.75;15.50;;;;;;;;;;8381944;28;20497;-77
2022/04/29 18:44:02;;;;;;;47.10;18.08;;;;;;;;;;8379466;28;20515;-77
2022/04/29 18:48:15;;;;;;;26.15;13.98;;;;;;;;;;8380581;28;20511;-77
2022/04/29 18:52:37;;;;;;;27.92;13.68;;;;;;;;;;8377765;28;20045;-76
2022/04/29 18:56:45;;;;;;;23.35;12.82;;;;;;;;;;8380031;28;20055;-76
2022/04/29 19:00:49;;;;;;;24.50;12.48;;;;;;;;;;8377982;28;20076;-77
2022/04/29 19:05:10;;;;;;;23.30;12.75;;;;;;;;;;8380715;28;20045;-76
2022/04/29 19:09:18;;;;;;;31.53;14.67;;;;;;;;;;8380952;28;20473;-76
2022/04/29 19:13:37;;;;;;;26.83;14.00;;;;;;;;;;8382204;28;20041;-76
2022/04/29 19:17:47;;;;;;;21.55;10.88;;;;;;;;;;8377127;28;20099;-77
2022/04/29 19:21:55;;;;;;;21.83;11.40;;;;;;;;;;8377121;28;20052;-77
2022/04/29 19:26:03;;;;;;;23.60;11.15;;;;;;;;;;8377308;28;20087;-77
2022/04/29 19:30:11;;;;;;;16.52;9.18;;;;;;;;;;8380612;28;20053;-80
2022/04/29 19:34:18;;;;;;;46.13;24.98;;;;;;;;;;8378647;28;20490;-77
2022/04/29 19:38:37;;;;;;;42.25;18.60;;;;;;;;;;8378360;28;20049;-77
2022/04/29 19:42:46;;;;;;;29.15;13.85;;;;;;;;;;8377345;28;20048;-78
2022/04/29 19:46:57;;;;;;;22.05;11.15;;;;;;;;;;8377634;28;20044;-77
2022/04/29 19:51:02;;;;;;;17.95;9.48;;;;;;;;;;8379300;28;20104;-77
2022/04/29 19:55:13;;;;;;;16.33;8.45;;;;;;;;;;8378590;28;20048;-78
2022/04/29 19:59:23;;;;;;;22.88;11.55;;;;;;;;;;8374053;28;20045;-78
2022/04/29 20:03:45;;;;;;;29.48;11.55;;;;;;;;;;8378686;28;20458;-77
2022/04/29 20:08:02;;;;;;;25.67;10.98;;;;;;;;;;8371844;28;20484;-76
2022/04/29 20:12:18;;;;;;;16.45;8.43;;;;;;;;;;8377777;28;20409;-77
2022/04/29 20:16:31;;;;;;;16.17;7.33;;;;;;;;;;8379913;28;20056;-78
2022/04/29 20:20:45;;;;;;;23.13;9.57;;;;;;;;;;8377378;28;20528;-80
2022/04/29 20:24:50;;;;;;;24.38;8.85;;;;;;;;;;8378918;28;20083;-78
2022/04/29 20:29:00;;;;;;;19.55;8.55;;;;;;;;;;8377476;28;20127;-76
2022/04/29 20:33:14;;;;;;;20.02;8.57;;;;;;;;;;8377637;28;20107;-78
2022/04/29 20:37:24;;;;;;;16.98;7.30;;;;;;;;;;8376874;28;20037;-78
2022/04/29 20:45:48;;;;;;;16.35;7.55;;;;;;;;;;8388018;28;20052;-78
2022/04/29 20:49:52;;;;;;;21.40;8.27;;;;;;;;;;8402389;28;20051;-78
2022/04/29 20:53:56;;;;;;;12.70;5.72;;;;;;;;;;8402299;28;20393;-78
2022/04/29 20:57:59;;;;;;;8.45;5.35;;;;;;;;;;8402603;28;20048;-79
2022/04/29 21:02:01;;;;;;;8.30;3.92;;;;;;;;;;8402590;28;20052;-79
2022/04/29 21:06:06;;;;;;;30.42;11.85;;;;;;;;;;8401664;28;20445;-79
2022/04/29 21:10:10;;;;;;;11.75;6.00;;;;;;;;;;8401653;28;20048;-78
2022/04/29 21:14:12;;;;;;;10.50;5.38;;;;;;;;;;8402056;28;20378;-77
2022/04/29 21:18:16;;;;;;;14.98;5.57;;;;;;;;;;8401348;28;20136;-77
2022/04/29 21:22:20;;;;;;;12.43;6.00;;;;;;;;;;8401178;28;20048;-80
2022/04/29 21:26:23;;;;;;;10.57;6.05;;;;;;;;;;8399343;28;20139;-78
2022/04/29 21:34:46;;;;;;;17.52;6.88;;;;;;;;;;8398500;28;20523;-77
2022/04/29 21:38:50;;;;;;;10.68;4.85;;;;;;;;;;8398327;28;20045;-77
2022/04/29 21:42:53;;;;;;;11.30;5.30;;;;;;;;;;8400794;28;20044;-79
2022/04/29 21:46:55;;;;;;;7.20;4.57;;;;;;;;;;8400907;28;20048;-79
2022/04/29 21:50:58;;;;;;;18.00;4.95;;;;;;;;;;8387446;28;20049;-78
2022/04/29 21:55:02;;;;;;;10.77;5.03;;;;;;;;;;8378609;28;20136;-76
2022/04/29 21:59:05;;;;;;;16.40;4.95;;;;;;;;;;8383246;28;20043;-80
2022/04/29 22:03:10;;;;;;;7.80;4.75;;;;;;;;;;8380178;28;20075;-77
2022/04/29 22:07:15;;;;;;;13.45;5.80;;;;;;;;;;8390770;28;20041;-77
2022/04/29 22:11:20;;;;;;;8.07;4.10;;;;;;;;;;8398886;28;20044;-77
2022/04/29 22:15:22;;;;;;;60.17;15.45;;;;;;;;;;8399195;28;20405;-79
2022/04/29 22:19:25;;;;;;;13.65;5.10;;;;;;;;;;8394991;28;20063;-77
2022/04/29 22:23:28;;;;;;;8.85;4.22;;;;;;;;;;8386747;28;20044;-77
2022/04/29 22:27:32;;;;;;;10.23;4.38;;;;;;;;;;8395295;28;20078;-77
2022/04/29 22:31:34;;;;;;;7.88;4.68;;;;;;;;;;8390657;28;20044;-76
2022/04/29 22:35:37;;;;;;;12.40;5.35;;;;;;;;;;8387065;28;20044;-76
2022/04/29 22:39:40;;;;;;;13.77;6.05;;;;;;;;;;8390472;28;20102;-79
2022/04/29 22:43:44;;;;;;;17.80;8.52;;;;;;;;;;8364804;28;20043;-79
2022/04/29 22:47:47;;;;;;;17.30;7.45;;;;;;;;;;8365859;28;20044;-79
2022/04/29 22:51:51;;;;;;;18.60;8.82;;;;;;;;;;8376644;28;20475;-76
2022/04/29 22:55:53;;;;;;;16.83;5.88;;;;;;;;;;8397495;28;20186;-77
2022/04/29 22:59:57;;;;;;;22.48;9.43;;;;;;;;;;8389207;28;20094;-79
2022/04/29 23:04:00;;;;;;;12.10;5.72;;;;;;;;;;8377211;28;20048;-80
2022/04/29 23:08:03;;;;;;;17.10;8.20;;;;;;;;;;8383107;28;20458;-77
2022/04/29 23:12:07;;;;;;;11.57;5.10;;;;;;;;;;8398054;28;20050;-77
2022/04/29 23:16:10;;;;;;;7.75;4.47;;;;;;;;;;8397863;28;20052;-78
2022/04/29 23:20:15;;;;;;;9.00;5.10;;;;;;;;;;8397613;28;20044;-76
2022/04/29 23:24:19;;;;;;;10.85;5.50;;;;;;;;;;8398142;28;20464;-79
2022/04/29 23:28:22;;;;;;;11.55;6.07;;;;;;;;;;8397259;28;20052;-77
2022/04/29 23:32:26;;;;;;;17.92;8.48;;;;;;;;;;8386688;28;20041;-78
2022/04/29 23:36:29;;;;;;;19.40;8.20;;;;;;;;;;8388668;28;20186;-79
2022/04/29 23:40:31;;;;;;;16.35;10.35;;;;;;;;;;8370696;28;20049;-80
2022/04/29 23:44:34;;;;;;;15.13;8.20;;;;;;;;;;8397983;28;20377;-79
2022/04/29 23:48:38;;;;;;;15.95;10.38;;;;;;;;;;8397060;28;20044;-77
2022/04/29 23:52:40;;;;;;;15.75;7.75;;;;;;;;;;8396863;28;20044;-77
2022/04/29 23:56:43;;;;;;;14.02;6.80;;;;;;;;;;8397530;28;20396;-78
